Time;durP1;ratioP1;P1;durP2;ratioP2;P2;SDS_P1;SDS_P2;PMS_P1;PMS_P2;Temp;Humidity;BMP_temperature;BMP_pressure;BME280_temperature;BME280_humidity;BME280_pressure;Samples;Min_cycle;Max_cycle;Signal;HPM_P1;HPM_P2
2022/03/07 00:00:59;;;;;;;11.27;5.15;;;;;;;2.14;92.84;102184.97;5060708;28;20473;-82
2022/03/07 00:03:25;;;;;;;9.38;4.75;;;;;;;2.19;92.40;102187.31;5040529;28;20106;-82
2022/03/07 00:05:50;;;;;;;8.32;3.50;;;;;;;2.25;92.74;102178.16;5043473;28;20076;-81
2022/03/07 00:08:16;;;;;;;10.13;5.38;;;;;;;2.25;93.04;102165.78;5049296;28;20071;-81
2022/03/07 00:10:42;;;;;;;12.35;4.65;;;;;;;2.30;93.34;102162.84;5025897;28;20036;-81
2022/03/07 00:13:07;;;;;;;13.25;5.57;;;;;;;2.26;93.34;102158.66;5041467;28;20033;-82
2022/03/07 00:15:33;;;;;;;9.50;4.95;;;;;;;2.20;93.80;102138.63;5056563;28;20486;-83
2022/03/07 00:17:58;;;;;;;14.45;5.38;;;;;;;2.30;93.83;102146.91;5043929;28;20025;-83
2022/03/07 00:20:24;;;;;;;8.93;5.15;;;;;;;2.29;93.92;102145.22;5044763;28;20036;-82
2022/03/07 00:22:50;;;;;;;13.90;6.45;;;;;;;2.38;93.43;102145.53;5031612;28;20132;-82
2022/03/07 00:25:16;;;;;;;7.90;4.35;;;;;;;2.37;93.25;102135.00;5067054;28;20047;-80
2022/03/07 00:27:42;;;;;;;9.00;4.82;;;;;;;2.46;92.92;102138.91;5028297;28;20036;-80
2022/03/07 00:30:08;;;;;;;9.63;4.97;;;;;;;2.49;92.94;102131.66;5031855;28;20539;-80
2022/03/07 00:32:34;;;;;;;12.00;5.20;;;;;;;2.51;92.22;102132.38;5056294;28;20570;-82
2022/03/07 00:35:00;;;;;;;14.05;4.75;;;;;;;2.60;92.33;102131.00;5042063;28;20117;-81
2022/03/07 00:37:26;;;;;;;11.25;4.40;;;;;;;2.64;91.68;102137.84;5031703;28;20690;-82
2022/03/07 00:39:51;;;;;;;12.93;6.25;;;;;;;2.68;91.84;102123.44;5033194;28;20036;-82
2022/03/07 00:42:17;;;;;;;9.32;5.47;;;;;;;2.67;91.56;102107.59;5042876;28;20025;-82
2022/03/07 00:44:43;;;;;;;8.77;4.07;;;;;;;2.73;91.94;102104.59;5045639;28;20079;-84
2022/03/07 00:47:08;;;;;;;7.88;4.20;;;;;;;2.86;91.78;102114.38;5031742;28;20048;-83
2022/03/07 00:49:34;;;;;;;7.28;3.90;;;;;;;2.93;90.86;102106.03;5031268;28;20036;-82
2022/03/07 00:51:59;;;;;;;8.80;4.10;;;;;;;2.99;90.87;102106.53;5034066;28;20095;-82
2022/03/07 00:54:25;;;;;;;8.80;4.53;;;;;;;3.05;90.31;102122.09;5027682;28;20036;-84
2022/03/07 00:56:51;;;;;;;10.00;4.03;;;;;;;2.83;90.11;102079.16;5032662;28;20068;-81
2022/03/07 00:59:17;;;;;;;6.00;4.03;;;;;;;3.11;89.97;102107.56;5027189;28;20033;-82
2022/03/07 01:01:42;;;;;;;9.73;4.63;;;;;;;3.13;89.61;102110.97;5031564;28;20021;-83
2022/03/07 01:04:08;;;;;;;8.48;4.40;;;;;;;3.12;89.61;102103.09;5034310;28;20149;-82
2022/03/07 01:06:33;;;;;;;6.57;3.00;;;;;;;3.08;89.38;102103.28;5052242;28;20058;-82
2022/03/07 01:08:59;;;;;;;7.07;3.42;;;;;;;3.07;89.53;102101.59;5031606;28;20044;-82
2022/03/07 01:11:25;;;;;;;9.57;3.97;;;;;;;3.09;89.02;102102.31;5034303;28;20040;-82
2022/03/07 01:13:50;;;;;;;6.78;3.63;;;;;;;3.08;89.16;102100.63;5025502;28;20052;-83
2022/03/07 01:16:19;;;;;;;7.88;4.03;;;;;;;3.08;88.75;102102.44;5041431;28;20073;-83
2022/03/07 01:18:45;;;;;;;8.60;3.28;;;;;;;3.07;88.76;102098.94;5036395;28;20063;-83
2022/03/07 01:21:12;;;;;;;7.35;4.05;;;;;;;3.06;89.00;102094.53;5052726;28;20037;-84
2022/03/07 01:23:38;;;;;;;8.90;4.53;;;;;;;2.97;89.60;102078.34;5050815;28;20504;-82
2022/03/07 01:26:04;;;;;;;9.90;4.65;;;;;;;2.97;89.78;102083.66;5075049;28;20107;-84
2022/03/07 01:28:29;;;;;;;5.20;3.13;;;;;;;2.93;90.48;102074.16;5048560;28;20463;-83
2022/03/07 01:30:55;;;;;;;8.13;4.55;;;;;;;2.92;90.32;102070.63;5051518;28;20036;-82
2022/03/07 01:33:20;;;;;;;9.90;4.65;;;;;;;2.99;90.85;102077.28;5054358;28;20040;-81
2022/03/07 01:35:46;;;;;;;12.60;5.25;;;;;;;2.90;90.83;102059.25;5034456;28;20536;-81
2022/03/07 01:38:12;;;;;;;13.02;4.97;;;;;;;2.99;91.16;102074.63;5029725;28;20462;-80
2022/03/07 01:40:37;;;;;;;9.95;4.65;;;;;;;2.98;91.16;102062.28;5039085;28;20055;-83
2022/03/07 01:43:06;;;;;;;9.68;3.97;;;;;;;3.05;91.55;102066.28;5037855;28;20109;-81
2022/03/07 01:45:31;;;;;;;7.43;3.08;;;;;;;2.99;90.97;102048.06;5070879;28;20042;-81
2022/03/07 01:47:59;;;;;;;13.93;5.07;;;;;;;3.08;91.28;102057.25;5033713;28;20135;-80
2022/03/07 01:50:25;;;;;;;9.75;3.63;;;;;;;3.06;91.50;102048.53;5072917;28;20032;-81
2022/03/07 01:52:53;;;;;;;10.25;4.80;;;;;;;3.11;91.93;102059.72;5038800;28;20445;-81
2022/03/07 01:55:22;;;;;;;9.05;3.70;;;;;;;3.05;91.76;102045.00;5071206;28;20036;-80
2022/03/07 01:57:49;;;;;;;10.25;4.70;;;;;;;2.98;92.76;102027.75;5072548;28;20036;-79
2022/03/07 02:00:17;;;;;;;13.50;5.72;;;;;;;3.06;93.02;102033.44;5055734;28;20541;-80
2022/03/07 02:02:43;;;;;;;13.38;5.50;;;;;;;3.07;93.52;102035.16;5038173;28;20552;-81
2022/03/07 02:05:10;;;;;;;4.13;2.55;;;;;;;3.04;93.57;102026.50;5032906;28;20036;-81
2022/03/07 02:07:36;;;;;;;10.80;4.80;;;;;;;3.07;93.26;102031.66;5056508;28;20119;-80
2022/03/07 02:10:03;;;;;;;11.52;4.63;;;;;;;3.06;93.06;102028.13;5039795;28;20513;-80
2022/03/07 02:12:29;;;;;;;15.63;6.10;;;;;;;3.08;93.17;102017.41;5032016;28;20477;-79
2022/03/07 02:14:54;;;;;;;14.45;5.13;;;;;;;3.19;92.90;102011.41;5047222;28;20039;-82
2022/03/07 02:17:20;;;;;;;11.05;5.07;;;;;;;3.24;91.80;101998.69;5064828;28;20146;-80
2022/03/07 02:19:45;;;;;;;15.60;5.03;;;;;;;3.41;90.97;102006.41;5068244;28;20346;-83
2022/03/07 02:22:11;;;;;;;14.93;5.90;;;;;;;3.42;90.84;102004.63;5069218;28;20040;-81
2022/03/07 02:24:37;;;;;;;13.82;6.25;;;;;;;3.48;90.09;102006.88;5036596;28;20118;-81
2022/03/07 02:27:05;;;;;;;12.27;5.45;;;;;;;3.45;90.12;102002.63;5050589;28;20111;-81
2022/03/07 02:29:32;;;;;;;9.43;4.07;;;;;;;3.40;89.92;101972.81;5050528;28;20040;-81
2022/03/07 02:31:57;;;;;;;13.05;5.47;;;;;;;3.27;89.91;101945.31;5063653;28;20466;-81
2022/03/07 02:34:24;;;;;;;13.48;6.07;;;;;;;3.46;89.35;101972.41;5031079;28;20083;-83
2022/03/07 02:36:49;;;;;;;16.70;6.20;;;;;;;3.42;89.47;101962.94;5049013;28;20291;-80
2022/03/07 02:39:15;;;;;;;17.05;6.32;;;;;;;3.36;89.24;101958.03;5059461;28;20037;-80
2022/03/07 02:41:41;;;;;;;11.38;5.00;;;;;;;3.07;89.50;101914.72;5028661;28;20120;-82
2022/03/07 02:44:07;;;;;;;14.73;5.78;;;;;;;3.27;89.52;101942.66;5062432;28;20107;-80
2022/03/07 02:46:33;;;;;;;13.50;5.70;;;;;;;3.34;88.98;101940.47;5032993;28;20540;-81
2022/03/07 02:48:58;;;;;;;14.50;6.50;;;;;;;3.28;88.66;101923.97;5030091;28;20041;-80
2022/03/07 02:51:24;;;;;;;16.67;6.57;;;;;;;3.36;88.57;101931.44;5044247;28;20406;-80
2022/03/07 02:53:52;;;;;;;14.45;5.35;;;;;;;3.28;88.27;101916.00;5029807;28;20086;-80
2022/03/07 02:56:18;;;;;;;14.00;5.90;;;;;;;3.32;88.47;101921.94;5033424;28;20428;-81
2022/03/07 02:58:44;;;;;;;10.45;5.85;;;;;;;3.35;88.09;101912.91;5032913;28;20045;-82
2022/03/07 03:01:10;;;;;;;11.70;6.18;;;;;;;3.25;87.23;101910.84;5027152;28;20091;-81
2022/03/07 03:03:36;;;;;;;16.10;5.55;;;;;;;3.09;87.21;101899.50;5063866;28;20098;-82
2022/03/07 03:06:02;;;;;;;11.93;4.68;;;;;;;3.03;87.67;101903.41;5046524;28;20033;-80
2022/03/07 03:08:27;;;;;;;14.82;5.22;;;;;;;3.11;87.39;101894.97;5035764;28;20032;-81
2022/03/07 03:10:54;;;;;;;12.32;7.15;;;;;;;3.30;86.33;101902.56;5040651;28;20512;-81
2022/03/07 03:13:22;;;;;;;12.02;5.80;;;;;;;3.44;85.49;101891.91;5030455;28;20033;-80
2022/03/07 03:15:49;;;;;;;13.63;5.68;;;;;;;3.53;84.99;101887.78;5049025;28;20036;-81
2022/03/07 03:18:15;;;;;;;12.93;5.47;;;;;;;3.55;84.55;101895.63;5030479;28;20754;-80
2022/03/07 03:20:43;;;;;;;14.32;5.43;;;;;;;3.49;84.19;101879.16;5051253;28;20042;-80
2022/03/07 03:23:08;;;;;;;16.05;6.07;;;;;;;3.50;84.05;101878.19;5044808;28;20032;-81
2022/03/07 03:25:37;;;;;;;12.98;5.32;;;;;;;3.57;83.45;101886.59;5030267;28;20040;-80
2022/03/07 03:28:04;;;;;;;9.35;5.13;;;;;;;3.62;82.83;101879.16;5035954;28;20036;-81
2022/03/07 03:30:30;;;;;;;10.30;5.25;;;;;;;3.70;82.43;101882.16;5066464;28;20131;-80
2022/03/07 03:32:56;;;;;;;12.80;6.07;;;;;;;3.74;81.69;101877.50;5030828;28;20044;-81
2022/03/07 03:35:22;;;;;;;10.90;4.28;;;;;;;3.79;81.48;101874.53;5048067;28;20105;-81
2022/03/07 03:37:47;;;;;;;12.27;5.50;;;;;;;3.80;81.39;101860.25;5038349;28;20486;-80
2022/03/07 03:40:13;;;;;;;8.23;4.93;;;;;;;3.65;80.92;101831.09;5030571;28;20082;-80
2022/03/07 03:42:39;;;;;;;8.75;4.20;;;;;;;3.52;81.52;101815.13;5064764;28;20028;-80
2022/03/07 03:45:08;;;;;;;8.73;4.45;;;;;;;3.73;81.76;101850.06;5060421;28;20037;-80
2022/03/07 03:47:35;;;;;;;11.13;5.40;;;;;;;3.74;81.42;101851.75;5042774;28;20048;-80
2022/03/07 03:50:01;;;;;;;14.48;5.68;;;;;;;3.71;81.52;101848.44;5032480;28;20036;-80
2022/03/07 03:52:27;;;;;;;11.40;5.40;;;;;;;3.59;81.75;101844.81;5029293;28;20426;-82
2022/03/07 03:54:55;;;;;;;10.85;5.13;;;;;;;3.44;82.49;101838.72;5033910;28;20036;-80
2022/03/07 03:57:22;;;;;;;9.68;5.95;;;;;;;3.33;83.00;101835.91;5035993;28;20539;-80
2022/03/07 03:59:48;;;;;;;9.73;5.25;;;;;;;3.23;83.74;101830.38;5031393;28;20131;-80
2022/03/07 04:02:13;;;;;;;14.43;5.80;;;;;;;3.07;83.96;101821.72;5029851;28;20040;-80
2022/03/07 04:04:39;;;;;;;12.38;5.15;;;;;;;3.03;84.35;101826.38;5027581;28;20063;-81
2022/03/07 04:07:05;;;;;;;10.65;4.88;;;;;;;2.99;85.10;101816.03;5044752;28;20056;-81
2022/03/07 04:09:31;;;;;;;10.90;5.45;;;;;;;3.11;85.11;101819.69;5031731;28;20024;-82
2022/03/07 04:11:56;;;;;;;10.05;5.32;;;;;;;3.12;85.41;101814.28;5047328;28;20036;-81
2022/03/07 04:14:22;;;;;;;14.15;6.05;;;;;;;3.17;84.93;101813.97;5028466;28;20115;-80
2022/03/07 04:16:47;;;;;;;11.50;5.90;;;;;;;3.16;85.08;101812.28;5033019;28;20031;-80
2022/03/07 04:19:15;;;;;;;13.93;6.20;;;;;;;3.12;84.98;101811.59;5050350;28;20038;-80
2022/03/07 04:21:41;;;;;;;9.60;5.07;;;;;;;3.02;84.89;101811.38;5063769;28;20028;-86
2022/03/07 04:24:12;;;;;;;10.82;6.22;;;;;;;2.94;85.92;101799.53;5064615;28;20032;-80
2022/03/07 04:26:38;;;;;;;13.18;6.53;;;;;;;2.82;86.36;101802.06;5031164;28;20436;-81
2022/03/07 04:29:14;;;;;;;14.05;5.97;;;;;;;2.60;86.55;101794.63;5045293;28;20031;-80
2022/03/07 04:31:43;;;;;;;12.48;5.40;;;;;;;2.64;88.35;101819.19;5032900;28;20064;-80
2022/03/07 04:34:12;;;;;;;12.50;5.20;;;;;;;2.72;88.09;101822.19;5032608;28;20485;-80
2022/03/07 04:36:39;;;;;;;10.20;5.38;;;;;;;2.87;88.13;101830.97;5049536;28;20043;-80
2022/03/07 04:39:06;;;;;;;12.23;5.60;;;;;;;2.97;87.28;101807.34;5048043;28;20033;-80
2022/03/07 04:41:32;;;;;;;12.63;6.30;;;;;;;3.12;86.96;101813.41;5031688;28;20036;-84
2022/03/07 04:43:58;;;;;;;12.02;6.07;;;;;;;3.20;86.35;101814.63;5058545;28;20055;-81
2022/03/07 04:46:23;;;;;;;14.85;6.07;;;;;;;3.29;86.48;101813.16;5049657;28;20466;-80
2022/03/07 04:48:49;;;;;;;15.32;6.32;;;;;;;3.36;86.20;101818.91;5049882;28;20032;-80
2022/03/07 04:51:15;;;;;;;17.80;6.43;;;;;;;3.38;85.89;101809.03;5024943;28;20040;-84
2022/03/07 04:53:41;;;;;;;18.35;6.50;;;;;;;3.46;86.29;101815.53;5028103;28;20394;-81
2022/03/07 04:56:07;;;;;;;10.85;5.78;;;;;;;3.39;85.87;101800.97;5048096;28;20067;-81
2022/03/07 04:58:33;;;;;;;10.60;4.13;;;;;;;3.47;86.06;101808.44;5048715;28;20389;-81
2022/03/07 05:00:59;;;;;;;16.63;6.03;;;;;;;3.40;86.31;101797.34;5029976;28;20035;-80
2022/03/07 05:03:25;;;;;;;17.08;6.43;;;;;;;3.50;86.67;101806.41;5049508;28;20043;-81
2022/03/07 05:05:50;;;;;;;9.60;5.22;;;;;;;3.52;86.68;101801.84;5064721;28;20447;-80
2022/03/07 05:08:16;;;;;;;12.90;6.28;;;;;;;3.29;86.09;101760.84;5048934;28;20059;-82
2022/03/07 05:10:42;;;;;;;16.08;6.43;;;;;;;3.48;86.68;101791.50;5057826;28;20037;-82
2022/03/07 05:13:08;;;;;;;12.02;5.55;;;;;;;3.39;86.92;101781.50;5031321;28;20058;-81
2022/03/07 05:15:34;;;;;;;13.27;6.35;;;;;;;3.43;86.42;101796.28;5028696;28;20025;-81
2022/03/07 05:17:59;;;;;;;13.93;6.50;;;;;;;3.44;86.89;101795.31;5031334;28;20110;-81
2022/03/07 05:20:25;;;;;;;13.02;6.47;;;;;;;3.45;86.98;101789.91;5030471;28;20047;-80
2022/03/07 05:22:52;;;;;;;11.68;5.32;;;;;;;3.46;87.10;101794.25;5026662;28;20114;-82
2022/03/07 05:25:18;;;;;;;16.17;7.22;;;;;;;3.47;87.57;101784.50;5064100;28;20036;-83
2022/03/07 05:27:45;;;;;;;15.73;6.28;;;;;;;3.46;87.79;101782.78;5065111;28;20033;-82
2022/03/07 05:30:15;;;;;;;14.05;5.95;;;;;;;3.53;87.56;101784.91;5061846;28;20040;-83
2022/03/07 05:32:45;;;;;;;16.08;8.18;;;;;;;3.42;87.58;101755.56;5045705;28;20031;-80
2022/03/07 05:35:12;;;;;;;18.52;8.32;;;;;;;3.57;87.63;101780.22;5048616;28;20028;-80
2022/03/07 05:37:38;;;;;;;18.00;7.30;;;;;;;3.60;88.03;101777.38;5048447;28;20055;-80
2022/03/07 05:40:06;;;;;;;16.83;6.38;;;;;;;3.65;87.60;101775.25;5046465;28;20036;-81
2022/03/07 05:42:36;;;;;;;13.75;7.22;;;;;;;3.65;87.51;101777.91;5053362;28;20435;-81
2022/03/07 05:45:05;;;;;;;13.27;6.32;;;;;;;3.58;87.92;101758.00;5063672;28;20597;-80
2022/03/07 05:47:31;;;;;;;15.00;5.88;;;;;;;3.68;87.74;101769.72;5060107;28;20021;-84
2022/03/07 05:49:57;;;;;;;16.70;7.03;;;;;;;3.70;88.28;101775.75;5048465;28;20078;-81
2022/03/07 05:52:23;;;;;;;13.32;4.95;;;;;;;3.69;88.13;101754.59;5049042;28;20029;-81
2022/03/07 05:54:49;;;;;;;17.15;6.13;;;;;;;3.72;88.49;101754.38;5065505;28;20043;-80
2022/03/07 05:57:14;;;;;;;19.63;7.20;;;;;;;3.61;88.52;101741.00;5045067;28;20847;-80
2022/03/07 05:59:40;;;;;;;13.35;6.10;;;;;;;3.71;88.55;101758.00;5030581;28;20086;-81
2022/03/07 06:02:05;;;;;;;18.25;7.13;;;;;;;3.73;88.85;101759.59;5032047;28;20417;-81
2022/03/07 06:04:31;;;;;;;11.68;6.10;;;;;;;3.67;88.82;101744.06;5031167;28;20091;-82
2022/03/07 06:06:57;;;;;;;19.02;6.40;;;;;;;3.67;88.99;101736.06;5034808;28;20063;-81
2022/03/07 06:09:22;;;;;;;17.85;9.38;;;;;;;3.65;89.14;101735.34;5068308;28;20029;-81
2022/03/07 06:11:48;;;;;;;19.20;9.57;;;;;;;3.66;89.37;101730.88;5033751;28;20060;-81
2022/03/07 06:14:14;;;;;;;22.70;10.00;;;;;;;3.70;89.45;101732.34;5048215;28;20055;-80
2022/03/07 06:16:40;;;;;;;19.67;8.48;;;;;;;3.67;88.96;101727.25;5061881;28;20069;-82
2022/03/07 06:19:05;;;;;;;18.67;8.55;;;;;;;3.74;88.92;101739.19;5027279;28;20204;-81
2022/03/07 06:21:31;;;;;;;18.52;8.38;;;;;;;3.70;89.00;101721.72;5061893;28;20144;-84
2022/03/07 06:23:57;;;;;;;26.13;8.27;;;;;;;3.82;88.89;101730.66;5059400;28;20484;-81
2022/03/07 06:26:23;;;;;;;18.23;7.75;;;;;;;3.81;88.72;101734.25;5029067;28;20038;-81
2022/03/07 06:28:53;;;;;;;18.67;8.07;;;;;;;3.73;89.33;101719.72;5058930;28;20032;-81
2022/03/07 06:31:18;;;;;;;20.85;7.88;;;;;;;3.86;89.09;101730.31;5057337;28;20497;-82
2022/03/07 06:33:44;;;;;;;25.25;8.55;;;;;;;3.84;89.07;101726.94;5062123;28;20081;-82
2022/03/07 06:36:10;;;;;;;18.48;7.68;;;;;;;3.86;89.50;101727.66;5058440;28;20134;-84
2022/03/07 06:38:36;;;;;;;18.40;7.68;;;;;;;3.73;89.71;101695.78;5043692;28;20045;-82
2022/03/07 06:41:02;;;;;;;22.50;8.18;;;;;;;3.68;89.75;101689.91;5057057;28;21304;-82
2022/03/07 06:43:29;;;;;;;11.25;6.10;;;;;;;3.84;89.75;101702.13;5027174;28;20085;-84
2022/03/07 06:45:55;;;;;;;17.65;6.70;;;;;;;3.87;89.51;101701.91;5028291;28;20045;-81
2022/03/07 06:48:21;;;;;;;24.60;8.32;;;;;;;3.82;89.82;101688.94;5033302;28;20036;-81
2022/03/07 06:50:47;;;;;;;26.88;9.05;;;;;;;3.90;89.48;101707.88;5031443;28;20047;-81
2022/03/07 06:53:13;;;;;;;21.08;8.55;;;;;;;3.94;89.98;101705.81;5052988;28;20098;-83
2022/03/07 06:55:38;;;;;;;16.23;8.07;;;;;;;3.90;89.59;101697.22;5076602;28;20409;-80
2022/03/07 06:58:07;;;;;;;25.10;8.90;;;;;;;3.82;89.99;101680.13;5042680;28;20055;-83
2022/03/07 07:00:32;;;;;;;19.20;7.70;;;;;;;3.91;89.74;101700.72;5027184;28;20485;-81
2022/03/07 07:03:01;;;;;;;18.48;7.85;;;;;;;3.89;89.89;101690.22;5061351;28;20032;-83
2022/03/07 07:05:28;;;;;;;21.20;8.73;;;;;;;3.89;90.23;101695.53;5037595;28;20044;-83
2022/03/07 07:07:54;;;;;;;19.85;8.50;;;;;;;3.87;90.19;101696.59;5050405;28;20083;-83
2022/03/07 07:10:20;;;;;;;24.48;8.52;;;;;;;3.83;90.33;101687.13;5036910;28;20071;-82
2022/03/07 07:12:47;;;;;;;24.25;7.95;;;;;;;3.79;90.52;101683.84;5069708;28;20033;-82
2022/03/07 07:15:15;;;;;;;23.10;7.50;;;;;;;3.87;90.19;101692.13;5056657;28;20033;-84
2022/03/07 07:17:41;;;;;;;16.45;6.82;;;;;;;3.82;89.34;101677.44;5044395;28;20039;-82
2022/03/07 07:20:08;;;;;;;26.48;8.57;;;;;;;3.85;88.65;101666.59;5066402;28;20515;-82
2022/03/07 07:22:34;;;;;;;17.08;6.93;;;;;;;3.90;88.52;101673.28;5036692;28;20032;-83
2022/03/07 07:25:01;;;;;;;25.08;7.57;;;;;;;3.97;87.44;101685.19;5032405;28;20029;-82
2022/03/07 07:27:29;;;;;;;21.38;7.82;;;;;;;4.01;86.59;101680.47;5048826;28;20553;-82
2022/03/07 07:29:55;;;;;;;14.10;6.22;;;;;;;4.12;85.42;101680.53;5040441;28;20490;-86
2022/03/07 07:32:21;;;;;;;18.95;8.05;;;;;;;4.22;84.20;101675.41;5035867;28;20077;-81
2022/03/07 07:34:50;;;;;;;19.17;9.23;;;;;;;4.29;83.29;101675.84;5049804;28;20032;-85
2022/03/07 07:37:15;;;;;;;26.67;10.05;;;;;;;4.33;82.97;101677.28;5051090;28;20032;-82
2022/03/07 07:39:41;;;;;;;22.70;10.65;;;;;;;4.38;82.87;101678.66;5059059;28;20072;-82
2022/03/07 07:42:07;;;;;;;24.02;8.85;;;;;;;4.47;82.45;101682.44;5069157;28;20028;-83
2022/03/07 07:44:33;;;;;;;36.95;11.50;;;;;;;4.54;81.55;101680.19;5035182;28;20087;-84
2022/03/07 07:46:58;;;;;;;23.50;9.57;;;;;;;4.59;81.34;101672.69;5066209;28;20041;-84
2022/03/07 07:49:24;;;;;;;22.95;8.60;;;;;;;4.60;80.73;101656.63;5065042;28;20678;-81
2022/03/07 07:51:53;;;;;;;23.98;8.68;;;;;;;4.62;79.75;101667.13;5065501;28;20032;-82
2022/03/07 07:54:19;;;;;;;14.38;6.40;;;;;;;4.60;79.01;101663.72;5049663;28;20389;-82
2022/03/07 07:56:44;;;;;;;17.38;7.53;;;;;;;4.63;79.07;101664.38;5027329;28;20036;-81
2022/03/07 07:59:10;;;;;;;10.25;4.55;;;;;;;4.70;79.50;101654.09;5035303;28;20040;-82
2022/03/07 08:01:36;;;;;;;20.02;7.38;;;;;;;4.68;79.43;101644.50;5051922;28;20881;-82
2022/03/07 08:04:02;;;;;;;14.40;7.07;;;;;;;4.80;78.98;101638.25;5035301;28;20040;-82
2022/03/07 08:06:28;;;;;;;35.92;12.48;;;;;;;4.96;77.75;101637.94;5033239;28;20486;-83
2022/03/07 08:08:54;;;;;;;16.63;5.97;;;;;;;5.48;75.47;101634.72;5066356;28;20036;-81
2022/03/07 08:11:19;;;;;;;19.35;7.70;;;;;;;5.65;74.32;101628.03;5030613;28;20485;-83
2022/03/07 08:13:45;;;;;;;18.27;6.93;;;;;;;5.87;74.17;101643.16;5068436;28;20032;-82
2022/03/07 08:16:11;;;;;;;12.43;5.25;;;;;;;5.79;73.63;101642.94;5044057;28;20033;-81
2022/03/07 08:18:36;;;;;;;13.20;5.20;;;;;;;5.68;73.30;101641.13;5033999;28;20546;-81
2022/03/07 08:21:02;;;;;;;13.80;5.22;;;;;;;5.47;73.29;101617.00;5034187;28;20391;-82
2022/03/07 08:23:27;;;;;;;14.27;6.43;;;;;;;5.51;73.69;101642.50;5041793;28;20029;-83
2022/03/07 08:25:53;;;;;;;20.63;9.88;;;;;;;5.51;73.71;101646.97;5034182;28;20113;-81
2022/03/07 08:30:18;;;;;;;22.42;7.55;;;;;;;5.52;73.24;101640.66;5107448;27;20497;-83
2022/03/07 08:32:43;;;;;;;37.60;13.25;;;;;;;5.55;72.94;101640.41;5088934;28;20028;-86
2022/03/07 08:35:11;;;;;;;18.73;7.43;;;;;;;5.60;71.90;101638.22;5071476;28;20036;-84
2022/03/07 08:37:37;;;;;;;26.45;10.82;;;;;;;5.64;71.60;101629.03;5082494;28;20029;-83
2022/03/07 08:40:05;;;;;;;21.63;9.32;;;;;;;5.80;70.66;101633.97;5082309;28;20243;-82
2022/03/07 08:42:31;;;;;;;23.63;9.55;;;;;;;5.93;69.79;101609.81;5048530;28;20130;-84
2022/03/07 08:44:57;;;;;;;12.10;5.38;;;;;;;6.09;68.55;101607.63;5082322;28;20124;-81
2022/03/07 08:47:23;;;;;;;10.68;5.40;;;;;;;6.32;66.39;101612.88;5077861;28;20111;-82
2022/03/07 08:49:51;;;;;;;17.63;5.47;;;;;;;6.56;65.15;101580.59;5064174;28;20421;-83
2022/03/07 08:52:17;;;;;;;13.20;5.95;;;;;;;6.95;64.63;101600.41;5063576;28;20052;-86
2022/03/07 08:54:44;;;;;;;28.17;9.48;;;;;;;7.22;63.61;101596.31;5045680;28;20032;-82
2022/03/07 08:57:10;;;;;;;17.42;6.68;;;;;;;7.19;62.64;101604.63;5086789;28;20385;-84
2022/03/07 08:59:36;;;;;;;19.33;7.45;;;;;;;7.29;62.67;101596.66;5049520;28;20044;-83
2022/03/07 09:02:03;;;;;;;15.65;7.80;;;;;;;7.41;62.26;101593.75;5051292;28;20047;-83
2022/03/07 09:04:29;;;;;;;46.85;17.05;;;;;;;7.55;61.82;101605.06;5079169;28;20036;-81
2022/03/07 09:06:54;;;;;;;17.42;7.75;;;;;;;7.62;61.21;101611.56;5062912;28;20363;-84
2022/03/07 09:09:20;;;;;;;21.27;7.53;;;;;;;7.46;61.77;101593.34;5076588;28;20025;-85
2022/03/07 09:11:46;;;;;;;18.27;7.10;;;;;;;7.38;61.79;101596.72;5076750;28;20401;-83
2022/03/07 09:14:15;;;;;;;22.08;8.45;;;;;;;7.44;60.51;101592.63;5075246;28;20044;-83
2022/03/07 09:16:42;;;;;;;13.70;5.00;;;;;;;7.27;60.93;101586.06;5067274;28;20024;-84
2022/03/07 09:19:07;;;;;;;13.00;5.47;;;;;;;7.08;60.97;101589.50;5082515;28;20043;-84
2022/03/07 09:21:33;;;;;;;13.48;6.00;;;;;;;6.88;61.92;101575.19;5068494;28;20037;-84
2022/03/07 09:23:58;;;;;;;11.60;5.82;;;;;;;6.97;61.67;101585.09;5081271;28;20036;-85
2022/03/07 09:26:24;;;;;;;11.80;5.95;;;;;;;7.15;61.05;101571.13;5065038;28;20039;-84
2022/03/07 09:28:50;;;;;;;12.32;7.00;;;;;;;7.42;59.49;101576.72;5049182;28;20382;-84
2022/03/07 09:31:15;;;;;;;22.00;8.00;;;;;;;7.53;58.54;101559.69;5058307;28;20082;-84
2022/03/07 09:33:41;;;;;;;16.90;7.10;;;;;;;7.54;59.56;101563.22;5080513;28;20044;-87
2022/03/07 09:36:07;;;;;;;12.88;5.90;;;;;;;7.55;58.08;101554.22;5084159;28;20032;-83
2022/03/07 09:38:36;;;;;;;10.23;5.40;;;;;;;7.50;59.12;101562.66;5051951;28;20039;-84
2022/03/07 09:41:02;;;;;;;17.83;6.93;;;;;;;7.48;58.97;101544.03;5058446;28;20093;-82
2022/03/07 09:43:28;;;;;;;19.88;8.05;;;;;;;7.62;59.19;101555.34;5072458;28;20040;-82
2022/03/07 09:45:56;;;;;;;15.07;6.43;;;;;;;8.20;56.51;101534.00;5045523;28;21803;-83
2022/03/07 09:48:23;;;;;;;17.35;6.45;;;;;;;8.74;54.03;101547.81;5038703;28;20040;-84
2022/03/07 09:50:50;;;;;;;15.48;5.93;;;;;;;8.93;53.92;101541.53;5038248;28;20036;-81
2022/03/07 09:53:17;;;;;;;18.85;8.68;;;;;;;9.05;52.81;101540.38;5058788;28;20036;-84
2022/03/07 09:55:44;;;;;;;16.90;8.75;;;;;;;9.09;53.29;101538.25;5070430;28;20040;-84
2022/03/07 09:58:10;;;;;;;23.95;10.30;;;;;;;9.62;51.74;101527.66;5055177;28;20033;-83
2022/03/07 10:00:40;;;;;;;17.70;7.47;;;;;;;9.32;52.13;101519.94;5070679;28;20448;-82
2022/03/07 10:03:09;;;;;;;10.88;6.50;;;;;;;9.96;51.00;101524.31;5055292;28;20106;-82
2022/03/07 10:05:37;;;;;;;20.08;9.02;;;;;;;9.91;50.01;101505.97;5057090;28;20291;-81
2022/03/07 10:08:04;;;;;;;13.63;6.30;;;;;;;10.11;48.91;101485.19;5055218;28;20159;-82
2022/03/07 10:10:32;;;;;;;13.20;6.78;;;;;;;12.48;44.82;101482.53;5039963;28;20131;-82
2022/03/07 10:13:05;;;;;;;15.77;7.45;;;;;;;14.35;40.08;101480.97;5050113;28;20036;-82
2022/03/07 10:15:31;;;;;;;13.82;8.00;;;;;;;13.74;40.42;101483.63;5039928;28;20032;-82
2022/03/07 10:17:56;;;;;;;16.02;6.10;;;;;;;11.62;43.21;101480.31;5054814;28;20371;-82
2022/03/07 10:20:24;;;;;;;7.78;4.40;;;;;;;9.96;46.71;101462.53;5051502;28;20146;-82
2022/03/07 10:22:52;;;;;;;10.18;5.07;;;;;;;8.92;49.86;101459.41;5075654;28;20096;-85
2022/03/07 10:25:38;;;;;;;17.90;6.95;;;;;;;8.44;52.68;101455.03;5038405;28;20052;-85
2022/03/07 10:28:04;;;;;;;17.70;6.95;;;;;;;8.90;51.96;101451.50;5028010;28;20520;-81
2022/03/07 10:30:31;;;;;;;16.45;8.13;;;;;;;10.04;49.74;101453.72;5038281;28;20048;-85
2022/03/07 10:32:59;;;;;;;12.32;6.28;;;;;;;13.72;40.97;101428.91;5057525;28;20044;-85
2022/03/07 10:35:33;;;;;;;15.70;8.50;;;;;;;16.73;35.65;101433.22;5038168;28;20048;-83
2022/03/07 10:38:07;;;;;;;33.28;11.40;;;;;;;18.15;31.64;101407.94;5051796;28;20032;-84
2022/03/07 10:40:34;;;;;;;14.55;8.35;;;;;;;18.73;30.87;101428.16;5060866;28;20033;-83
2022/03/07 10:43:01;;;;;;;17.08;8.00;;;;;;;19.10;30.40;101426.59;5067029;28;20028;-83
2022/03/07 10:45:28;;;;;;;11.18;6.10;;;;;;;19.45;29.15;101416.16;5070567;28;20028;-84
2022/03/07 10:47:56;;;;;;;14.57;7.63;;;;;;;19.45;28.92;101415.31;5057587;28;20032;-85
2022/03/07 10:50:24;;;;;;;23.25;10.75;;;;;;;19.28;29.07;101413.09;5040200;28;20048;-85
2022/03/07 10:53:02;;;;;;;30.08;12.02;;;;;;;18.05;30.86;101410.25;5051796;28;20534;-85
2022/03/07 10:55:29;;;;;;;14.38;6.95;;;;;;;13.76;36.83;101404.03;5031983;28;20043;-84
2022/03/07 10:58:07;;;;;;;11.90;6.05;;;;;;;11.31;42.35;101397.41;5052442;28;20059;-83
2022/03/07 11:00:33;;;;;;;17.27;7.70;;;;;;;10.12;46.23;101406.25;5053296;28;20127;-82
2022/03/07 11:03:00;;;;;;;20.92;9.00;;;;;;;9.57;47.81;101402.94;5044285;28;20031;-84
2022/03/07 11:05:26;;;;;;;27.48;12.15;;;;;;;9.34;49.98;101394.47;5068471;28;20169;-83
2022/03/07 11:07:52;;;;;;;16.42;7.68;;;;;;;9.03;51.42;101403.72;5067117;28;20544;-84
2022/03/07 11:10:17;;;;;;;24.52;11.27;;;;;;;8.66;52.78;101385.00;5068752;28;20036;-83
2022/03/07 11:12:44;;;;;;;22.55;11.68;;;;;;;8.46;53.92;101378.84;5053582;28;20035;-83
2022/03/07 11:15:12;;;;;;;25.17;11.13;;;;;;;8.56;54.88;101379.66;5052369;28;20067;-83
2022/03/07 11:17:44;;;;;;;16.77;7.80;;;;;;;8.51;54.46;101378.41;5067631;28;20028;-82
2022/03/07 11:20:13;;;;;;;23.42;10.23;;;;;;;8.40;55.56;101373.25;5051585;28;20037;-85
2022/03/07 11:22:38;;;;;;;23.85;9.27;;;;;;;8.39;56.02;101385.81;5036544;28;20039;-82